Share

Harare International, Zimbabwe

Harare International (FVHA) Elev 4856 ft | 17.92 °S, 31.13 °E | Change Station

Current weather conditions updated 2 hours ago

Clear
Clear
57 °F
Feels Like 57 °F
N
0
Wind Variable Wind from North
Sunrise 6:06 AM
Sunset 5:42 PM
Moon Waning Gibbous

Today is forecast to be nearly the same temperature as yesterday.

Pressure 30.30 in
Visibility -9999.0 miles
Clouds
Dew Point 55 °F
Humidity 94%
Rainfall 0.00 in
Snow Depth Not available.
UV Not available.
Pollen Not available.
Air Quality Not available.
Flu Activity Not available.
METAR FVHA 200000Z 00000KT CAVOK 14/13 Q1026

More Conditions Fewer Conditions

Pressure 30.30 in
Visibility -9999.0 miles
Clouds
Dew Point 55 °F
Humidity 94%
Rainfall 0.00 in
Snow Depth Not available.
UV Not available.
Pollen Not available.
Air Quality Not available.
Flu Activity Not available.
METAR FVHA 200000Z 00000KT CAVOK 14/13 Q1026

More Conditions Fewer Conditions

10-Day Weather Forecast

Almanac

Astronomy

Apr. 20, 2014 Rise Set
Actual Time 6:06 AM CAT 5:42 PM CAT
Civil Twilight 5:43 AM CAT 6:04 PM CAT
Nautical Twilight 5:18 AM CAT 6:30 PM CAT
Astronomical Twilight 4:52 AM CAT 6:55 PM CAT
Moon 10:23 PM CAT 10:44 AM CAT
Length of Visible Light 12h 20m
Length of Day
11h 36m
Tomorrow will be 0m 55s shorter.
Waning Gibbous, 75% of the Moon is Illuminated
Apr 19
Waning Gibbous
Apr 22
Last Quarter
Apr 29
New
May 6
First Quarter
May 14
Full

Yesterday's Extremes

Country Highs Country Lows

Community

  • Cherry Blossoms
    Cherry Blossoms
  • White-Crowned Sparrow
    White-Crowned Sparrow
  • New Day
    New Day
  • Happy Easter!
    Happy Easter!
  • poppy bloom near Mazar-e-Sharif
    poppy bloom near Mazar-e-Sharif

WunderPhotos

Upload Photos

1,703,031 photos uploaded!

WunderBlogs® & News

By Dr. Jeff Masters
Director of Meteorology, Weather Underground
By Kari Strenfel
Meteorologist, Weather Underground
By Christopher C. Burt
Weather Historian, Weather Underground
April 19, 2014
April 19, 2014
April 19, 2014

Nearby

Snow Depth

Not available.

Coastal Water Temperatures

Place Temperature
No Stations Reporting

Earthquake Activity

City Distance Mag. Time & Date
No recent earthquake activity has been reported nearby.
Minimum magnitude displayed is 2.5.

Nearby Weather Stations

Station Location Temp. Dew Point Humidity Wind Precip. Elev Updated Type
Borrowdale Brooke, Harare 56.3 °F 53 °F 88% SW  at  0.0 mph 0.00 in / hr 4757 ft 4:00 AM CAT Rapid Fire

Show More Stations Show Fewer Stations

What do you think?

We're not finished. Please let us know what you like, what you don't like, and what you are still missing.